sensor_id;sensor_type;location;lat;lon;timestamp;P1;durP1;ratioP1;P2;durP2;ratioP2
17763;SDS011;22245;52.832;13.816;2024-01-06T00:00:30;30.93;;;15.13;;
17763;SDS011;22245;52.832;13.816;2024-01-06T00:03:52;32.50;;;16.17;;
17763;SDS011;22245;52.832;13.816;2024-01-06T00:07:15;35.13;;;16.57;;
17763;SDS011;22245;52.832;13.816;2024-01-06T00:10:36;31.37;;;15.00;;
17763;SDS011;22245;52.832;13.816;2024-01-06T00:13:57;29.23;;;15.07;;
17763;SDS011;22245;52.832;13.816;2024-01-06T00:17:19;35.30;;;16.00;;
17763;SDS011;22245;52.832;13.816;2024-01-06T00:20:40;35.70;;;16.63;;
17763;SDS011;22245;52.832;13.816;2024-01-06T00:24:03;34.83;;;16.80;;
17763;SDS011;22245;52.832;13.816;2024-01-06T00:27:25;29.17;;;16.03;;
17763;SDS011;22245;52.832;13.816;2024-01-06T00:30:47;33.57;;;15.93;;
17763;SDS011;22245;52.832;13.816;2024-01-06T00:34:09;38.43;;;16.40;;
17763;SDS011;22245;52.832;13.816;2024-01-06T00:37:31;32.50;;;15.57;;
17763;SDS011;22245;52.832;13.816;2024-01-06T00:40:53;32.43;;;15.43;;
17763;SDS011;22245;52.832;13.816;2024-01-06T00:44:15;31.93;;;15.93;;
17763;SDS011;22245;52.832;13.816;2024-01-06T00:47:36;35.00;;;15.63;;
17763;SDS011;22245;52.832;13.816;2024-01-06T00:50:58;33.37;;;16.07;;
17763;SDS011;22245;52.832;13.816;2024-01-06T00:54:20;33.83;;;16.60;;
17763;SDS011;22245;52.832;13.816;2024-01-06T00:57:43;28.87;;;15.00;;
17763;SDS011;22245;52.832;13.816;2024-01-06T01:01:05;35.67;;;15.67;;
17763;SDS011;22245;52.832;13.816;2024-01-06T01:04:27;35.30;;;15.47;;
17763;SDS011;22245;52.832;13.816;2024-01-06T01:07:49;30.53;;;15.30;;
17763;SDS011;22245;52.832;13.816;2024-01-06T01:11:10;36.70;;;16.83;;
17763;SDS011;22245;52.832;13.816;2024-01-06T01:14:34;29.30;;;14.83;;
17763;SDS011;22245;52.832;13.816;2024-01-06T01:17:55;30.23;;;15.60;;
17763;SDS011;22245;52.832;13.816;2024-01-06T01:21:17;32.90;;;16.53;;
17763;SDS011;22245;52.832;13.816;2024-01-06T01:24:39;33.03;;;15.40;;
17763;SDS011;22245;52.832;13.816;2024-01-06T01:28:01;31.23;;;15.37;;
17763;SDS011;22245;52.832;13.816;2024-01-06T01:31:23;31.20;;;15.43;;
17763;SDS011;22245;52.832;13.816;2024-01-06T01:34:45;29.80;;;15.37;;
17763;SDS011;22245;52.832;13.816;2024-01-06T01:38:06;28.40;;;14.70;;
17763;SDS011;22245;52.832;13.816;2024-01-06T01:41:28;30.37;;;15.10;;
17763;SDS011;22245;52.832;13.816;2024-01-06T01:44:49;28.40;;;14.63;;
17763;SDS011;22245;52.832;13.816;2024-01-06T01:48:12;29.70;;;15.53;;
17763;SDS011;22245;52.832;13.816;2024-01-06T01:51:34;32.33;;;14.83;;
17763;SDS011;22245;52.832;13.816;2024-01-06T01:54:56;31.90;;;16.13;;
17763;SDS011;22245;52.832;13.816;2024-01-06T01:58:18;31.53;;;15.43;;
17763;SDS011;22245;52.832;13.816;2024-01-06T02:01:40;34.10;;;16.10;;
17763;SDS011;22245;52.832;13.816;2024-01-06T02:05:04;30.43;;;15.07;;
17763;SDS011;22245;52.832;13.816;2024-01-06T02:08:25;29.63;;;14.97;;
17763;SDS011;22245;52.832;13.816;2024-01-06T02:11:47;29.57;;;15.40;;
17763;SDS011;22245;52.832;13.816;2024-01-06T02:15:08;31.53;;;15.07;;
17763;SDS011;22245;52.832;13.816;2024-01-06T02:18:30;29.07;;;15.13;;
17763;SDS011;22245;52.832;13.816;2024-01-06T02:21:53;35.07;;;16.57;;
17763;SDS011;22245;52.832;13.816;2024-01-06T02:25:15;30.43;;;14.43;;
17763;SDS011;22245;52.832;13.816;2024-01-06T02:28:36;29.83;;;14.67;;
17763;SDS011;22245;52.832;13.816;2024-01-06T02:31:58;31.77;;;15.13;;
17763;SDS011;22245;52.832;13.816;2024-01-06T02:35:20;29.30;;;14.40;;
17763;SDS011;22245;52.832;13.816;2024-01-06T02:38:43;29.87;;;14.90;;
17763;SDS011;22245;52.832;13.816;2024-01-06T02:42:05;32.13;;;14.60;;
17763;SDS011;22245;52.832;13.816;2024-01-06T02:45:26;35.00;;;15.53;;
17763;SDS011;22245;52.832;13.816;2024-01-06T02:48:48;28.77;;;15.17;;
17763;SDS011;22245;52.832;13.816;2024-01-06T02:52:10;28.90;;;15.10;;
17763;SDS011;22245;52.832;13.816;2024-01-06T02:55:33;30.50;;;16.17;;
17763;SDS011;22245;52.832;13.816;2024-01-06T02:58:54;26.73;;;14.23;;
17763;SDS011;22245;52.832;13.816;2024-01-06T03:02:16;30.23;;;14.37;;
17763;SDS011;22245;52.832;13.816;2024-01-06T03:05:37;30.03;;;14.97;;
17763;SDS011;22245;52.832;13.816;2024-01-06T03:08:59;27.10;;;13.87;;
17763;SDS011;22245;52.832;13.816;2024-01-06T03:12:22;30.40;;;14.67;;
17763;SDS011;22245;52.832;13.816;2024-01-06T03:15:43;30.50;;;14.37;;
17763;SDS011;22245;52.832;13.816;2024-01-06T03:19:06;29.80;;;14.23;;
17763;SDS011;22245;52.832;13.816;2024-01-06T03:22:28;29.07;;;14.07;;
17763;SDS011;22245;52.832;13.816;2024-01-06T03:25:49;27.17;;;13.87;;
17763;SDS011;22245;52.832;13.816;2024-01-06T03:29:12;27.13;;;14.37;;
17763;SDS011;22245;52.832;13.816;2024-01-06T03:32:33;26.10;;;13.33;;
17763;SDS011;22245;52.832;13.816;2024-01-06T03:35:55;30.10;;;14.13;;
17763;SDS011;22245;52.832;13.816;2024-01-06T03:39:16;28.60;;;13.97;;
17763;SDS011;22245;52.832;13.816;2024-01-06T03:42:38;29.87;;;14.17;;
17763;SDS011;22245;52.832;13.816;2024-01-06T03:46:01;28.13;;;14.13;;
17763;SDS011;22245;52.832;13.816;2024-01-06T03:49:22;31.73;;;14.63;;
17763;SDS011;22245;52.832;13.816;2024-01-06T03:52:44;29.37;;;14.40;;
17763;SDS011;22245;52.832;13.816;2024-01-06T03:56:06;35.43;;;15.37;;
17763;SDS011;22245;52.832;13.816;2024-01-06T03:59:28;25.50;;;13.73;;
17763;SDS011;22245;52.832;13.816;2024-01-06T04:02:51;33.23;;;14.27;;
17763;SDS011;22245;52.832;13.816;2024-01-06T04:06:12;30.00;;;13.90;;
17763;SDS011;22245;52.832;13.816;2024-01-06T04:09:34;31.53;;;13.50;;
17763;SDS011;22245;52.832;13.816;2024-01-06T04:12:56;26.97;;;13.43;;
17763;SDS011;22245;52.832;13.816;2024-01-06T04:16:18;32.10;;;14.40;;
17763;SDS011;22245;52.832;13.816;2024-01-06T04:19:41;30.20;;;14.57;;
17763;SDS011;22245;52.832;13.816;2024-01-06T04:23:03;32.33;;;14.10;;
17763;SDS011;22245;52.832;13.816;2024-01-06T04:26:24;31.27;;;14.50;;
17763;SDS011;22245;52.832;13.816;2024-01-06T04:29:46;34.23;;;15.00;;
17763;SDS011;22245;52.832;13.816;2024-01-06T04:33:07;33.23;;;15.27;;
17763;SDS011;22245;52.832;13.816;2024-01-06T04:36:30;36.40;;;15.30;;
17763;SDS011;22245;52.832;13.816;2024-01-06T04:39:52;36.23;;;15.27;;
17763;SDS011;22245;52.832;13.816;2024-01-06T04:43:14;36.53;;;16.50;;
17763;SDS011;22245;52.832;13.816;2024-01-06T04:46:35;33.73;;;15.90;;
17763;SDS011;22245;52.832;13.816;2024-01-06T04:49:57;32.57;;;15.87;;
17763;SDS011;22245;52.832;13.816;2024-01-06T04:53:19;33.13;;;15.77;;
17763;SDS011;22245;52.832;13.816;2024-01-06T04:56:41;35.83;;;16.67;;
17763;SDS011;22245;52.832;13.816;2024-01-06T05:00:02;34.87;;;17.37;;
17763;SDS011;22245;52.832;13.816;2024-01-06T05:03:24;32.97;;;16.60;;
17763;SDS011;22245;52.832;13.816;2024-01-06T05:06:46;32.17;;;16.23;;
17763;SDS011;22245;52.832;13.816;2024-01-06T05:10:09;34.77;;;16.37;;
17763;SDS011;22245;52.832;13.816;2024-01-06T05:13:31;35.77;;;16.03;;
17763;SDS011;22245;52.832;13.816;2024-01-06T05:16:52;34.90;;;16.60;;
17763;SDS011;22245;52.832;13.816;2024-01-06T05:20:14;39.20;;;17.17;;
17763;SDS011;22245;52.832;13.816;2024-01-06T05:23:35;32.77;;;15.83;;
17763;SDS011;22245;52.832;13.816;2024-01-06T05:26:58;35.43;;;15.40;;
17763;SDS011;22245;52.832;13.816;2024-01-06T05:30:19;34.37;;;16.43;;
17763;SDS011;22245;52.832;13.816;2024-01-06T05:33:41;33.83;;;16.80;;
17763;SDS011;22245;52.832;13.816;2024-01-06T05:37:04;31.30;;;16.67;;
17763;SDS011;22245;52.832;13.816;2024-01-06T05:40:25;32.90;;;15.77;;
17763;SDS011;22245;52.832;13.816;2024-01-06T05:43:48;34.90;;;15.77;;
17763;SDS011;22245;52.832;13.816;2024-01-06T05:47:09;32.70;;;15.37;;
17763;SDS011;22245;52.832;13.816;2024-01-06T05:50:31;32.10;;;15.43;;
17763;SDS011;22245;52.832;13.816;2024-01-06T05:53:52;31.93;;;15.43;;
17763;SDS011;22245;52.832;13.816;2024-01-06T05:57:14;31.03;;;15.90;;
17763;SDS011;22245;52.832;13.816;2024-01-06T06:00:37;31.30;;;15.60;;
17763;SDS011;22245;52.832;13.816;2024-01-06T06:04:00;31.40;;;15.97;;
17763;SDS011;22245;52.832;13.816;2024-01-06T06:07:22;31.30;;;15.07;;
17763;SDS011;22245;52.832;13.816;2024-01-06T06:10:43;33.70;;;15.27;;
17763;SDS011;22245;52.832;13.816;2024-01-06T06:14:21;31.20;;;14.87;;
17763;SDS011;22245;52.832;13.816;2024-01-06T06:17:48;30.00;;;14.67;;
17763;SDS011;22245;52.832;13.816;2024-01-06T06:21:09;31.63;;;14.90;;
17763;SDS011;22245;52.832;13.816;2024-01-06T06:24:31;30.27;;;15.10;;
17763;SDS011;22245;52.832;13.816;2024-01-06T06:27:53;28.57;;;14.20;;
17763;SDS011;22245;52.832;13.816;2024-01-06T06:31:14;32.23;;;14.67;;
17763;SDS011;22245;52.832;13.816;2024-01-06T06:34:38;30.47;;;14.47;;
17763;SDS011;22245;52.832;13.816;2024-01-06T06:37:59;29.77;;;13.83;;
17763;SDS011;22245;52.832;13.816;2024-01-06T06:41:21;30.37;;;14.70;;
17763;SDS011;22245;52.832;13.816;2024-01-06T06:44:43;27.83;;;13.67;;
17763;SDS011;22245;52.832;13.816;2024-01-06T06:48:04;34.60;;;15.93;;
17763;SDS011;22245;52.832;13.816;2024-01-06T06:51:28;29.73;;;14.53;;
17763;SDS011;22245;52.832;13.816;2024-01-06T06:54:50;30.20;;;14.63;;
17763;SDS011;22245;52.832;13.816;2024-01-06T06:58:13;34.83;;;15.00;;
17763;SDS011;22245;52.832;13.816;2024-01-06T07:01:34;29.70;;;14.93;;
17763;SDS011;22245;52.832;13.816;2024-01-06T07:04:57;32.17;;;14.03;;
17763;SDS011;22245;52.832;13.816;2024-01-06T07:08:20;29.70;;;14.83;;
17763;SDS011;22245;52.832;13.816;2024-01-06T07:11:41;29.70;;;13.90;;
17763;SDS011;22245;52.832;13.816;2024-01-06T07:15:03;27.63;;;13.67;;
17763;SDS011;22245;52.832;13.816;2024-01-06T07:18:26;26.07;;;14.13;;
17763;SDS011;22245;52.832;13.816;2024-01-06T07:21:48;31.43;;;14.10;;
17763;SDS011;22245;52.832;13.816;2024-01-06T07:25:11;31.87;;;14.47;;
17763;SDS011;22245;52.832;13.816;2024-01-06T07:28:33;29.30;;;13.73;;
17763;SDS011;22245;52.832;13.816;2024-01-06T07:31:54;29.10;;;13.87;;
17763;SDS011;22245;52.832;13.816;2024-01-06T07:35:16;27.07;;;14.03;;
17763;SDS011;22245;52.832;13.816;2024-01-06T07:38:37;26.60;;;13.00;;
17763;SDS011;22245;52.832;13.816;2024-01-06T07:42:00;29.87;;;14.10;;
17763;SDS011;22245;52.832;13.816;2024-01-06T07:45:22;29.97;;;14.50;;
17763;SDS011;22245;52.832;13.816;2024-01-06T07:48:44;28.50;;;14.10;;
17763;SDS011;22245;52.832;13.816;2024-01-06T07:52:05;26.97;;;13.90;;
17763;SDS011;22245;52.832;13.816;2024-01-06T07:55:27;30.63;;;14.50;;
17763;SDS011;22245;52.832;13.816;2024-01-06T07:58:50;26.93;;;13.20;;
17763;SDS011;22245;52.832;13.816;2024-01-06T08:02:14;27.33;;;13.80;;
17763;SDS011;22245;52.832;13.816;2024-01-06T08:05:35;28.80;;;13.37;;
17763;SDS011;22245;52.832;13.816;2024-01-06T08:08:57;25.70;;;13.30;;
17763;SDS011;22245;52.832;13.816;2024-01-06T08:12:18;26.43;;;13.57;;
17763;SDS011;22245;52.832;13.816;2024-01-06T08:15:41;32.40;;;14.93;;
17763;SDS011;22245;52.832;13.816;2024-01-06T08:19:03;34.97;;;16.43;;
17763;SDS011;22245;52.832;13.816;2024-01-06T08:22:25;32.10;;;14.03;;
17763;SDS011;22245;52.832;13.816;2024-01-06T08:25:46;34.77;;;16.77;;
17763;SDS011;22245;52.832;13.816;2024-01-06T08:29:07;32.13;;;15.77;;
17763;SDS011;22245;52.832;13.816;2024-01-06T08:32:30;33.10;;;15.10;;
17763;SDS011;22245;52.832;13.816;2024-01-06T08:35:52;27.00;;;13.03;;
17763;SDS011;22245;52.832;13.816;2024-01-06T08:39:13;27.93;;;13.90;;
17763;SDS011;22245;52.832;13.816;2024-01-06T08:42:35;29.37;;;13.37;;
17763;SDS011;22245;52.832;13.816;2024-01-06T08:45:56;27.53;;;14.03;;
17763;SDS011;22245;52.832;13.816;2024-01-06T08:49:19;27.60;;;13.83;;
17763;SDS011;22245;52.832;13.816;2024-01-06T08:52:41;29.03;;;14.10;;
17763;SDS011;22245;52.832;13.816;2024-01-06T08:56:03;33.23;;;14.00;;
17763;SDS011;22245;52.832;13.816;2024-01-06T08:59:26;26.93;;;13.67;;
17763;SDS011;22245;52.832;13.816;2024-01-06T09:02:47;30.73;;;14.23;;
17763;SDS011;22245;52.832;13.816;2024-01-06T09:06:11;29.43;;;14.27;;
17763;SDS011;22245;52.832;13.816;2024-01-06T09:09:33;31.97;;;14.73;;
17763;SDS011;22245;52.832;13.816;2024-01-06T09:12:54;27.80;;;14.40;;
17763;SDS011;22245;52.832;13.816;2024-01-06T09:16:16;34.10;;;15.03;;
17763;SDS011;22245;52.832;13.816;2024-01-06T09:19:38;32.00;;;15.57;;
17763;SDS011;22245;52.832;13.816;2024-01-06T09:23:01;30.37;;;14.43;;
17763;SDS011;22245;52.832;13.816;2024-01-06T09:26:23;33.80;;;14.90;;
17763;SDS011;22245;52.832;13.816;2024-01-06T09:29:45;28.93;;;13.93;;
17763;SDS011;22245;52.832;13.816;2024-01-06T09:33:06;28.00;;;14.53;;
17763;SDS011;22245;52.832;13.816;2024-01-06T09:36:29;29.90;;;14.87;;
17763;SDS011;22245;52.832;13.816;2024-01-06T09:39:53;27.27;;;14.53;;
17763;SDS011;22245;52.832;13.816;2024-01-06T09:43:15;32.87;;;14.57;;
17763;SDS011;22245;52.832;13.816;2024-01-06T09:46:37;30.00;;;14.03;;
17763;SDS011;22245;52.832;13.816;2024-01-06T09:50:00;32.83;;;15.50;;
17763;SDS011;22245;52.832;13.816;2024-01-06T09:53:26;31.43;;;14.70;;
17763;SDS011;22245;52.832;13.816;2024-01-06T09:56:56;30.37;;;13.97;;
17763;SDS011;22245;52.832;13.816;2024-01-06T10:00:18;39.93;;;17.17;;
17763;SDS011;22245;52.832;13.816;2024-01-06T10:03:40;31.43;;;14.27;;
17763;SDS011;22245;52.832;13.816;2024-01-06T10:07:02;26.97;;;13.80;;
17763;SDS011;22245;52.832;13.816;2024-01-06T10:10:24;29.47;;;13.63;;
17763;SDS011;22245;52.832;13.816;2024-01-06T10:13:46;28.60;;;14.20;;
17763;SDS011;22245;52.832;13.816;2024-01-06T10:17:09;28.23;;;13.50;;
17763;SDS011;22245;52.832;13.816;2024-01-06T10:20:31;26.20;;;13.10;;
17763;SDS011;22245;52.832;13.816;2024-01-06T10:23:53;26.53;;;13.10;;
17763;SDS011;22245;52.832;13.816;2024-01-06T10:27:15;25.97;;;12.67;;
17763;SDS011;22245;52.832;13.816;2024-01-06T10:30:38;23.73;;;12.57;;
17763;SDS011;22245;52.832;13.816;2024-01-06T10:34:00;22.90;;;12.53;;
17763;SDS011;22245;52.832;13.816;2024-01-06T10:37:22;25.07;;;13.07;;
17763;SDS011;22245;52.832;13.816;2024-01-06T10:40:57;23.90;;;12.50;;
17763;SDS011;22245;52.832;13.816;2024-01-06T10:44:19;24.13;;;12.10;;
17763;SDS011;22245;52.832;13.816;2024-01-06T10:47:43;25.73;;;12.33;;
17763;SDS011;22245;52.832;13.816;2024-01-06T10:51:05;23.83;;;12.13;;
17763;SDS011;22245;52.832;13.816;2024-01-06T10:54:28;21.87;;;12.17;;
17763;SDS011;22245;52.832;13.816;2024-01-06T10:57:50;23.93;;;11.70;;
17763;SDS011;22245;52.832;13.816;2024-01-06T11:01:15;25.40;;;12.00;;
17763;SDS011;22245;52.832;13.816;2024-01-06T11:04:45;21.07;;;11.43;;
17763;SDS011;22245;52.832;13.816;2024-01-06T11:08:07;21.30;;;11.63;;
17763;SDS011;22245;52.832;13.816;2024-01-06T11:11:30;21.03;;;10.87;;
17763;SDS011;22245;52.832;13.816;2024-01-06T11:14:53;21.50;;;11.27;;
17763;SDS011;22245;52.832;13.816;2024-01-06T11:18:31;22.47;;;11.53;;
17763;SDS011;22245;52.832;13.816;2024-01-06T11:21:56;20.03;;;10.80;;
17763;SDS011;22245;52.832;13.816;2024-01-06T11:25:38;21.27;;;11.10;;
17763;SDS011;22245;52.832;13.816;2024-01-06T11:29:02;25.50;;;12.50;;
17763;SDS011;22245;52.832;13.816;2024-01-06T11:32:25;27.47;;;13.20;;
17763;SDS011;22245;52.832;13.816;2024-01-06T11:35:48;25.30;;;12.70;;
17763;SDS011;22245;52.832;13.816;2024-01-06T11:43:03;21.00;;;11.20;;
17763;SDS011;22245;52.832;13.816;2024-01-06T11:46:26;23.80;;;11.37;;
17763;SDS011;22245;52.832;13.816;2024-01-06T11:49:49;23.50;;;12.17;;
17763;SDS011;22245;52.832;13.816;2024-01-06T11:53:16;21.03;;;11.90;;
17763;SDS011;22245;52.832;13.816;2024-01-06T11:56:39;25.00;;;12.20;;
17763;SDS011;22245;52.832;13.816;2024-01-06T12:00:00;21.90;;;11.57;;
17763;SDS011;22245;52.832;13.816;2024-01-06T12:03:25;20.50;;;10.57;;
17763;SDS011;22245;52.832;13.816;2024-01-06T12:06:48;20.13;;;10.30;;
17763;SDS011;22245;52.832;13.816;2024-01-06T12:10:10;19.03;;;10.30;;
17763;SDS011;22245;52.832;13.816;2024-01-06T12:13:35;15.57;;;9.30;;
17763;SDS011;22245;52.832;13.816;2024-01-06T12:16:56;15.53;;;8.90;;
17763;SDS011;22245;52.832;13.816;2024-01-06T12:20:22;14.00;;;7.87;;
17763;SDS011;22245;52.832;13.816;2024-01-06T12:23:44;14.53;;;8.10;;
17763;SDS011;22245;52.832;13.816;2024-01-06T12:27:07;14.07;;;7.13;;
17763;SDS011;22245;52.832;13.816;2024-01-06T12:30:33;17.33;;;7.77;;
17763;SDS011;22245;52.832;13.816;2024-01-06T12:33:55;12.27;;;6.63;;
17763;SDS011;22245;52.832;13.816;2024-01-06T12:37:18;13.27;;;6.87;;
17763;SDS011;22245;52.832;13.816;2024-01-06T12:40:40;13.43;;;6.87;;
17763;SDS011;22245;52.832;13.816;2024-01-06T12:44:01;11.33;;;5.73;;
17763;SDS011;22245;52.832;13.816;2024-01-06T12:47:24;10.63;;;6.40;;
17763;SDS011;22245;52.832;13.816;2024-01-06T12:50:46;11.33;;;6.20;;
17763;SDS011;22245;52.832;13.816;2024-01-06T12:54:07;11.03;;;6.20;;
17763;SDS011;22245;52.832;13.816;2024-01-06T12:57:28;10.57;;;5.10;;
17763;SDS011;22245;52.832;13.816;2024-01-06T13:00:50;9.67;;;5.43;;
17763;SDS011;22245;52.832;13.816;2024-01-06T13:04:14;10.07;;;5.63;;
17763;SDS011;22245;52.832;13.816;2024-01-06T13:07:35;8.87;;;4.67;;
17763;SDS011;22245;52.832;13.816;2024-01-06T13:10:57;11.43;;;5.87;;
17763;SDS011;22245;52.832;13.816;2024-01-06T13:14:19;10.80;;;5.20;;
17763;SDS011;22245;52.832;13.816;2024-01-06T13:17:44;9.37;;;5.30;;
17763;SDS011;22245;52.832;13.816;2024-01-06T13:21:08;10.27;;;5.17;;
17763;SDS011;22245;52.832;13.816;2024-01-06T13:24:29;10.57;;;4.87;;
17763;SDS011;22245;52.832;13.816;2024-01-06T13:27:51;12.30;;;5.33;;
17763;SDS011;22245;52.832;13.816;2024-01-06T13:31:12;10.53;;;5.30;;
17763;SDS011;22245;52.832;13.816;2024-01-06T13:34:35;9.37;;;5.30;;
17763;SDS011;22245;52.832;13.816;2024-01-06T13:37:59;8.07;;;4.67;;
17763;SDS011;22245;52.832;13.816;2024-01-06T13:41:24;8.80;;;4.53;;
17763;SDS011;22245;52.832;13.816;2024-01-06T13:44:45;7.60;;;4.67;;
17763;SDS011;22245;52.832;13.816;2024-01-06T13:48:08;10.33;;;5.00;;
17763;SDS011;22245;52.832;13.816;2024-01-06T13:51:30;9.30;;;5.07;;
17763;SDS011;22245;52.832;13.816;2024-01-06T13:54:54;9.50;;;5.17;;
17763;SDS011;22245;52.832;13.816;2024-01-06T13:58:16;13.13;;;4.77;;
17763;SDS011;22245;52.832;13.816;2024-01-06T14:01:38;13.23;;;5.83;;
17763;SDS011;22245;52.832;13.816;2024-01-06T14:05:00;9.67;;;4.67;;
17763;SDS011;22245;52.832;13.816;2024-01-06T14:08:22;10.50;;;4.60;;
17763;SDS011;22245;52.832;13.816;2024-01-06T14:11:45;8.77;;;4.13;;
17763;SDS011;22245;52.832;13.816;2024-01-06T14:15:07;9.43;;;4.23;;
17763;SDS011;22245;52.832;13.816;2024-01-06T14:18:30;8.77;;;4.40;;
17763;SDS011;22245;52.832;13.816;2024-01-06T14:21:51;5.87;;;3.77;;
17763;SDS011;22245;52.832;13.816;2024-01-06T14:25:14;9.40;;;4.40;;
17763;SDS011;22245;52.832;13.816;2024-01-06T14:28:39;7.63;;;4.27;;
17763;SDS011;22245;52.832;13.816;2024-01-06T14:32:00;9.20;;;3.97;;
17763;SDS011;22245;52.832;13.816;2024-01-06T14:35:21;8.73;;;4.10;;
17763;SDS011;22245;52.832;13.816;2024-01-06T14:38:43;6.10;;;3.67;;
17763;SDS011;22245;52.832;13.816;2024-01-06T14:42:05;9.20;;;4.10;;
17763;SDS011;22245;52.832;13.816;2024-01-06T14:45:28;7.40;;;3.93;;
17763;SDS011;22245;52.832;13.816;2024-01-06T14:48:50;7.50;;;3.63;;
17763;SDS011;22245;52.832;13.816;2024-01-06T14:52:12;7.83;;;4.13;;
17763;SDS011;22245;52.832;13.816;2024-01-06T14:55:34;7.60;;;4.20;;
17763;SDS011;22245;52.832;13.816;2024-01-06T14:58:58;7.00;;;3.47;;
17763;SDS011;22245;52.832;13.816;2024-01-06T15:02:20;8.93;;;4.60;;
17763;SDS011;22245;52.832;13.816;2024-01-06T15:05:42;7.80;;;3.73;;
17763;SDS011;22245;52.832;13.816;2024-01-06T15:09:04;9.57;;;4.30;;
17763;SDS011;22245;52.832;13.816;2024-01-06T15:12:25;8.23;;;3.83;;
17763;SDS011;22245;52.832;13.816;2024-01-06T15:15:46;6.37;;;3.80;;
17763;SDS011;22245;52.832;13.816;2024-01-06T15:19:15;6.73;;;3.70;;
17763;SDS011;22245;52.832;13.816;2024-01-06T15:22:36;9.73;;;4.80;;
17763;SDS011;22245;52.832;13.816;2024-01-06T15:26:00;11.00;;;5.30;;
17763;SDS011;22245;52.832;13.816;2024-01-06T15:29:24;8.93;;;4.43;;
17763;SDS011;22245;52.832;13.816;2024-01-06T15:32:45;9.93;;;5.30;;
17763;SDS011;22245;52.832;13.816;2024-01-06T15:36:10;10.27;;;4.93;;
17763;SDS011;22245;52.832;13.816;2024-01-06T15:39:31;10.83;;;4.40;;
17763;SDS011;22245;52.832;13.816;2024-01-06T15:42:53;11.33;;;4.80;;
17763;SDS011;22245;52.832;13.816;2024-01-06T15:46:14;9.67;;;5.30;;
17763;SDS011;22245;52.832;13.816;2024-01-06T15:49:37;10.13;;;5.17;;
17763;SDS011;22245;52.832;13.816;2024-01-06T15:53:00;15.63;;;6.40;;
17763;SDS011;22245;52.832;13.816;2024-01-06T15:56:21;13.07;;;5.33;;
17763;SDS011;22245;52.832;13.816;2024-01-06T15:59:43;9.23;;;5.33;;
17763;SDS011;22245;52.832;13.816;2024-01-06T16:03:04;11.43;;;5.57;;
17763;SDS011;22245;52.832;13.816;2024-01-06T16:06:26;9.67;;;5.10;;
17763;SDS011;22245;52.832;13.816;2024-01-06T16:09:50;11.47;;;5.60;;
17763;SDS011;22245;52.832;13.816;2024-01-06T16:13:12;11.33;;;5.93;;
17763;SDS011;22245;52.832;13.816;2024-01-06T16:16:33;10.93;;;5.30;;
17763;SDS011;22245;52.832;13.816;2024-01-06T16:19:54;9.60;;;5.77;;
17763;SDS011;22245;52.832;13.816;2024-01-06T16:23:16;10.67;;;5.93;;
17763;SDS011;22245;52.832;13.816;2024-01-06T16:26:39;12.57;;;5.97;;
17763;SDS011;22245;52.832;13.816;2024-01-06T16:30:01;9.83;;;5.50;;
17763;SDS011;22245;52.832;13.816;2024-01-06T16:33:22;11.07;;;5.87;;
17763;SDS011;22245;52.832;13.816;2024-01-06T16:36:44;12.03;;;6.37;;
17763;SDS011;22245;52.832;13.816;2024-01-06T16:40:06;10.47;;;5.03;;
17763;SDS011;22245;52.832;13.816;2024-01-06T16:43:32;11.30;;;6.57;;
17763;SDS011;22245;52.832;13.816;2024-01-06T16:46:57;11.97;;;5.77;;
17763;SDS011;22245;52.832;13.816;2024-01-06T16:50:19;11.83;;;5.53;;
17763;SDS011;22245;52.832;13.816;2024-01-06T16:53:40;11.77;;;5.80;;
17763;SDS011;22245;52.832;13.816;2024-01-06T16:57:01;12.13;;;6.33;;
17763;SDS011;22245;52.832;13.816;2024-01-06T17:00:25;11.17;;;5.70;;
17763;SDS011;22245;52.832;13.816;2024-01-06T17:03:48;10.03;;;5.83;;
17763;SDS011;22245;52.832;13.816;2024-01-06T17:07:10;10.13;;;5.70;;
17763;SDS011;22245;52.832;13.816;2024-01-06T17:10:31;12.60;;;6.17;;
17763;SDS011;22245;52.832;13.816;2024-01-06T17:13:53;11.80;;;6.40;;
17763;SDS011;22245;52.832;13.816;2024-01-06T17:17:16;10.70;;;5.30;;
17763;SDS011;22245;52.832;13.816;2024-01-06T17:20:38;10.17;;;5.87;;
17763;SDS011;22245;52.832;13.816;2024-01-06T17:23:59;13.47;;;6.27;;
17763;SDS011;22245;52.832;13.816;2024-01-06T17:27:21;10.63;;;5.33;;
17763;SDS011;22245;52.832;13.816;2024-01-06T17:30:43;11.40;;;6.10;;
17763;SDS011;22245;52.832;13.816;2024-01-06T17:34:06;12.77;;;6.23;;
17763;SDS011;22245;52.832;13.816;2024-01-06T17:37:28;11.93;;;6.63;;
17763;SDS011;22245;52.832;13.816;2024-01-06T17:40:49;14.43;;;6.57;;
17763;SDS011;22245;52.832;13.816;2024-01-06T17:44:11;11.23;;;6.20;;
17763;SDS011;22245;52.832;13.816;2024-01-06T17:47:32;12.13;;;5.63;;
17763;SDS011;22245;52.832;13.816;2024-01-06T17:50:57;9.93;;;5.77;;
17763;SDS011;22245;52.832;13.816;2024-01-06T17:54:19;9.33;;;5.50;;
17763;SDS011;22245;52.832;13.816;2024-01-06T17:57:41;10.67;;;5.77;;
17763;SDS011;22245;52.832;13.816;2024-01-06T18:01:03;13.13;;;7.13;;
17763;SDS011;22245;52.832;13.816;2024-01-06T18:04:24;10.80;;;6.33;;
17763;SDS011;22245;52.832;13.816;2024-01-06T18:07:48;11.63;;;5.70;;
17763;SDS011;22245;52.832;13.816;2024-01-06T18:11:09;10.60;;;5.67;;
17763;SDS011;22245;52.832;13.816;2024-01-06T18:14:30;11.17;;;5.77;;
17763;SDS011;22245;52.832;13.816;2024-01-06T18:17:56;9.70;;;5.07;;
17763;SDS011;22245;52.832;13.816;2024-01-06T18:21:18;10.43;;;6.27;;
17763;SDS011;22245;52.832;13.816;2024-01-06T18:24:41;10.67;;;5.57;;
17763;SDS011;22245;52.832;13.816;2024-01-06T18:28:03;10.60;;;6.13;;
17763;SDS011;22245;52.832;13.816;2024-01-06T18:31:25;11.70;;;5.60;;
17763;SDS011;22245;52.832;13.816;2024-01-06T18:34:47;13.67;;;6.17;;
17763;SDS011;22245;52.832;13.816;2024-01-06T18:38:08;11.90;;;6.30;;
17763;SDS011;22245;52.832;13.816;2024-01-06T18:41:31;9.63;;;5.10;;
17763;SDS011;22245;52.832;13.816;2024-01-06T18:44:53;8.23;;;4.77;;
17763;SDS011;22245;52.832;13.816;2024-01-06T18:48:14;9.07;;;4.63;;
17763;SDS011;22245;52.832;13.816;2024-01-06T18:51:36;10.27;;;5.27;;
17763;SDS011;22245;52.832;13.816;2024-01-06T18:54:58;8.43;;;4.57;;
17763;SDS011;22245;52.832;13.816;2024-01-06T18:58:21;9.07;;;4.23;;
17763;SDS011;22245;52.832;13.816;2024-01-06T19:01:43;12.07;;;5.33;;
17763;SDS011;22245;52.832;13.816;2024-01-06T19:05:05;9.77;;;4.20;;
17763;SDS011;22245;52.832;13.816;2024-01-06T19:08:27;11.07;;;4.20;;
17763;SDS011;22245;52.832;13.816;2024-01-06T19:11:48;8.83;;;4.20;;
17763;SDS011;22245;52.832;13.816;2024-01-06T19:15:11;8.53;;;4.03;;
17763;SDS011;22245;52.832;13.816;2024-01-06T19:18:32;10.10;;;4.07;;
17763;SDS011;22245;52.832;13.816;2024-01-06T19:21:54;7.87;;;4.00;;
17763;SDS011;22245;52.832;13.816;2024-01-06T19:25:16;8.57;;;3.80;;
17763;SDS011;22245;52.832;13.816;2024-01-06T19:28:37;9.37;;;4.00;;
17763;SDS011;22245;52.832;13.816;2024-01-06T19:32:00;6.00;;;3.07;;
17763;SDS011;22245;52.832;13.816;2024-01-06T19:35:26;7.00;;;3.70;;
17763;SDS011;22245;52.832;13.816;2024-01-06T19:38:47;7.53;;;3.73;;